KFKL/FKL METAR and TAF weather

Enter ICAO airport designator
Station Type Date Time Source
KFKL METAR 2022/12/04 12:56 UTC NOAA

KFKL 041256Z AUTO 22003KT 10SM FEW019 M06/M06 A3024 RMK AO2 SLP260 T10611061 FZRANO


Station Type Date Time Source
KFKL Decoded METAR 2022/12/04 12:56 UTC NOAA

Franklin, Venango Regional Airport, PA, United States (KFKL) 41-23N 079-52W
Dec 04, 2022 - 07:56 AM EST / 2022.12.04 1256 UTC
Wind: from the SW (220 degrees) at 3 MPH (3 KT):0
Visibility: 10 mile(s):0
Sky conditions: mostly clear
Temperature: 21.0 F (-6.1 C)
Dew Point: 21.0 F (-6.1 C)
Relative Humidity: 100%
Pressure (altimeter): 30.24 in. Hg (1024 hPa)
ob: KFKL 041256Z AUTO 22003KT 10SM FEW019 M06/M06 A3024 RMK AO2 SLP260 T10611061 FZRANO
cycle: 13

Station Type Date Time Source
KFKL TAF 2022/12/04 13:48 UTC NOAA

TAF
AMD KFKL 041245Z 0413/0512 24005KT P6SM SCT025
TEMPO 0413/0415 P6SM BKN020
FM041500 23006KT P6SM SKC
FM050900 19005KT P6SM SKC

Example: see airport list